• Join FlightAware (Why Join?)
  • Login
  • US Flag 
11:02AM EDT


 

Airport Tracker/Info


-or-


 

Live Flight TrackerFlight Track Log ✈ SWA543 ✈ 04-Jun-2013 ✈ KATL - KSDF

Flight Track Log - Related Links

Times and Time Zones

All times are in EDT time to prevent confusion due to time zone crossing. See the SWA543 flight status page for this flight to view local times or setup timezone preferences in your user account.

Time Position Orientation Groundspeed Altitude Reporting Facility
EDT Latitude Longitude Course Direction KTS MPH feet Rate Location/Type
08:53AM 33.6667 -84.2833 320° Northwest 278 320 5,200  Level Atlanta TRACON
08:54AM 33.6833 -84.2000 76° East 299 344 8,000 2,880 Climbing Atlanta TRACON
08:55AM 33.7500 -84.1833 12° North 316 364 10,100 8,460 Climbing Atlanta TRACON
08:57AM 33.9256 -84.2692 338° Northwest 304 350 34,000 1,860 Climbing Atlanta Center
08:58AM 33.9955 -84.3287 320° Northwest  Level FlightAware Approximate
08:58AM 33.9964 -84.3369 322° Northwest 312 359 16,100  Level Atlanta Center
08:59AM 34.0692 -84.4025 320° Northwest  Level FlightAware Approximate
08:59AM 34.0756 -84.4100 323° Northwest 332 382 19,000  Level Atlanta Center
09:00AM 34.1567 -84.4831 323° Northwest 351 404 21,300 2,160 Climbing Atlanta Center
09:01AM 34.2439 -84.5589 324° Northwest 372 428 23,400 1,980 Climbing Atlanta Center
09:02AM 34.3439 -84.6150 335° Northwest 380 437 25,300 1,920 Climbing Atlanta Center
09:03AM 34.4544 -84.6408 349° North 393 452 27,300 1,800 Climbing Atlanta Center
09:04AM 34.5692 -84.6669 349° North 404 465 29,000 1,800 Climbing Atlanta Center
09:05AM 34.6878 -84.6956 349° North 423 487 30,900 2,040 Climbing Atlanta Center
09:06AM 34.8044 -84.7242 349° North 428 493 33,100 1,080 Climbing Atlanta Center
09:07AM 34.9192 -84.7531 348° North 428 493 33,100  Level Atlanta Center
09:08AM 35.0358 -84.7844 348° North 428 493 33,100  Level Atlanta Center
09:09AM 35.1525 -84.8111 349° North 428 493 33,100  Level Atlanta Center
09:10AM 35.2631 -84.8400 348° North 420 483 33,100  Level Atlanta Center
09:11AM 35.3733 -84.8664 349° North 409 471 33,100  Level Atlanta Center
09:12AM 35.4878 -84.8958 348° North 409 471 33,100  Level Atlanta Center
09:13AM 35.5983 -84.9250 348° North 409 471 33,100  Level Atlanta Center
09:14AM 35.7086 -84.9517 349° North 409 471 33,100  Level Atlanta Center
09:15AM 35.8108 -84.9733 350° North 404 465 33,100 -540 Level Atlanta Center
09:16AM 35.9581 -85.0108 348° North 410 472 32,000 -960 Descending Indianapolis Center
09:17AM 36.0761 -85.0406 348° North 413 475 31,000 -960 Descending Indianapolis Center
09:18AM 36.1906 -85.0683 349° North 417 480 30,100 -480 Descending Indianapolis Center
09:19AM 36.3072 -85.0972 349° North 424 488 30,100 -360 Level Indianapolis Center
09:20AM 36.4233 -85.1269 348° North 424 488 29,400 -780 Descending Indianapolis Center
09:22AM 36.5419 -85.1567 349° North 432 497 28,500 -900 Descending Indianapolis Center
09:23AM 36.6661 -85.1508 North 451 519 27,600 -960 Descending Indianapolis Center
09:24AM 36.8139 -85.1233 North 449 517 26,500 -1,020 Descending Indianapolis Center
09:25AM 36.9372 -85.0986 North 448 516 25,500 -1,140 Descending Indianapolis Center
09:26AM 37.0597 -85.0725 10° North 438 504 24,200 -1,500 Descending Indianapolis Center
09:27AM 37.1664 -85.0514 North 391 450 22,500 -1,980 Descending Indianapolis Center
09:28AM 37.2664 -85.0314 North 364 419 20,200 -2,340 Descending Indianapolis Center
09:29AM 37.3672 -85.0117 North 362 417 17,700 -2,520 Descending Indianapolis Center
09:30AM 37.4667 -84.9903 10° North 360 414 15,000 -3,000 Descending Indianapolis Center
09:31AM 37.5819 -84.9683 North 356 410 11,600 -2,400 Descending Indianapolis Center
09:32AM 37.6753 -84.9814 354° North 353 406 10,100 -780 Descending Indianapolis Center
09:33AM 37.7394 -85.0703 312° West 346 398 10,100  Level Indianapolis Center
09:34AM 37.8031 -85.1622 311° West 346 398 10,100  Level Indianapolis Center
09:35AM 37.8639 -85.2422 314° West 334 384 10,100 -480 Level Indianapolis Center
09:36AM 37.9289 -85.3347 312° West 293 337 9,200 -960 Descending Indianapolis Center
09:37AM 37.9819 -85.4078 313° West 285 328 8,200 -1,020 Descending Indianapolis Center
09:38AM 38.0333 -85.4819 311° West 280 322 7,200 -960 Descending Indianapolis Center
09:39AM 38.0858 -85.5553 312° West 279 321 6,300 -540 Descending Indianapolis Center
09:40AM 38.1544 -85.6042 331° Northwest 292 336 6,100 -120 Descending Indianapolis Center
09:41AM 38.2281 -85.6364 341° North 282 325 6,100 -600 Level Indianapolis Center
09:42AM 38.2853 -85.6875 325° Northwest 282 325 4,900 -1,080 Descending Indianapolis Center
09:43AM 38.2892 -85.7703 273° West 216 249 3,900 -1,320 Descending Indianapolis Center
09:44AM 38.2586 -85.7761 189° South 178 205 2,200 -1,680 Descending Indianapolis Center